sensor_id;sensor_type;location;lat;lon;timestamp;pressure;altitude;pressure_sealevel;temperature;humidity
61537;BME280;48695;53.480;-6.300;2023-09-18T00:02:19;99535.63;;;17.82;80.48
61537;BME280;48695;53.480;-6.300;2023-09-18T00:04:44;99535.75;;;17.81;80.82
61537;BME280;48695;53.480;-6.300;2023-09-18T00:07:10;99524.44;;;17.79;81.10
61537;BME280;48695;53.480;-6.300;2023-09-18T00:09:36;99517.59;;;17.76;81.16
61537;BME280;48695;53.480;-6.300;2023-09-18T00:12:01;99521.06;;;17.77;80.61
61537;BME280;48695;53.480;-6.300;2023-09-18T00:14:26;99519.38;;;17.76;80.95
61537;BME280;48695;53.480;-6.300;2023-09-18T00:16:52;99521.19;;;17.75;80.87
61537;BME280;48695;53.480;-6.300;2023-09-18T00:19:18;99493.19;;;17.60;81.13
61537;BME280;48695;53.480;-6.300;2023-09-18T00:21:43;99519.50;;;17.74;81.10
61537;BME280;48695;53.480;-6.300;2023-09-18T00:24:09;99484.66;;;17.56;80.81
61537;BME280;48695;53.480;-6.300;2023-09-18T00:26:34;99517.03;;;17.71;80.71
61537;BME280;48695;53.480;-6.300;2023-09-18T00:28:59;99512.72;;;17.70;81.14
61537;BME280;48695;53.480;-6.300;2023-09-18T00:31:25;99508.41;;;17.69;80.69
61537;BME280;48695;53.480;-6.300;2023-09-18T00:33:50;99507.63;;;17.67;80.79
61537;BME280;48695;53.480;-6.300;2023-09-18T00:36:15;99503.31;;;17.66;80.82
61537;BME280;48695;53.480;-6.300;2023-09-18T00:38:41;99501.63;;;17.65;80.83
61537;BME280;48695;53.480;-6.300;2023-09-18T00:41:06;99499.00;;;17.65;81.06
61537;BME280;48695;53.480;-6.300;2023-09-18T00:43:32;99501.63;;;17.65;80.93
61537;BME280;48695;53.480;-6.300;2023-09-18T00:45:57;99500.88;;;17.63;81.13
61537;BME280;48695;53.480;-6.300;2023-09-18T00:48:23;99498.25;;;17.63;80.91
61537;BME280;48695;53.480;-6.300;2023-09-18T00:50:49;99492.25;;;17.61;80.76
61537;BME280;48695;53.480;-6.300;2023-09-18T00:53:17;99494.03;;;17.60;80.98
61537;BME280;48695;53.480;-6.300;2023-09-18T00:55:44;99484.53;;;17.58;81.09
61537;BME280;48695;53.480;-6.300;2023-09-18T00:58:10;99475.88;;;17.56;81.16
61537;BME280;48695;53.480;-6.300;2023-09-18T01:00:36;99473.38;;;17.54;80.86
61537;BME280;48695;53.480;-6.300;2023-09-18T01:03:01;99471.66;;;17.53;81.39
61537;BME280;48695;53.480;-6.300;2023-09-18T01:05:29;99465.22;;;17.57;79.94
61537;BME280;48695;53.480;-6.300;2023-09-18T01:07:55;99463.84;;;17.52;81.10
61537;BME280;48695;53.480;-6.300;2023-09-18T01:10:23;99465.53;;;17.53;81.00
61537;BME280;48695;53.480;-6.300;2023-09-18T01:13:04;99459.53;;;17.51;80.50
61537;BME280;48695;53.480;-6.300;2023-09-18T01:15:35;99458.81;;;17.49;81.20
61537;BME280;48695;53.480;-6.300;2023-09-18T01:18:02;99462.63;;;17.45;80.91
61537;BME280;48695;53.480;-6.300;2023-09-18T01:20:28;99446.97;;;17.42;81.24
61537;BME280;48695;53.480;-6.300;2023-09-18T01:22:54;99446.97;;;17.42;80.90
61537;BME280;48695;53.480;-6.300;2023-09-18T01:25:19;99443.63;;;17.40;81.14
61537;BME280;48695;53.480;-6.300;2023-09-18T01:27:44;99424.63;;;17.34;80.83
61537;BME280;48695;53.480;-6.300;2023-09-18T01:30:10;99434.00;;;17.38;81.24
61537;BME280;48695;53.480;-6.300;2023-09-18T01:32:36;99413.03;;;17.24;81.12
61537;BME280;48695;53.480;-6.300;2023-09-18T01:35:04;99434.22;;;17.35;81.43
61537;BME280;48695;53.480;-6.300;2023-09-18T01:37:33;99421.16;;;17.34;81.58
61537;BME280;48695;53.480;-6.300;2023-09-18T01:40:01;99396.38;;;17.24;81.52
61537;BME280;48695;53.480;-6.300;2023-09-18T01:42:32;99409.00;;;17.31;81.03
61537;BME280;48695;53.480;-6.300;2023-09-18T01:44:57;99414.28;;;17.31;81.01
61537;BME280;48695;53.480;-6.300;2023-09-18T01:47:23;99410.94;;;17.29;81.54
61537;BME280;48695;53.480;-6.300;2023-09-18T01:49:48;99409.22;;;17.28;81.15
61537;BME280;48695;53.480;-6.300;2023-09-18T01:52:14;99407.53;;;17.27;81.15
61537;BME280;48695;53.480;-6.300;2023-09-18T01:54:40;99397.22;;;17.24;81.10
61537;BME280;48695;53.480;-6.300;2023-09-18T01:57:05;99393.22;;;17.19;81.05
61537;BME280;48695;53.480;-6.300;2023-09-18T01:59:33;99398.91;;;17.25;81.03
61537;BME280;48695;53.480;-6.300;2023-09-18T02:01:58;99391.94;;;17.24;81.38
61537;BME280;48695;53.480;-6.300;2023-09-18T02:04:24;99397.22;;;17.24;81.48
61537;BME280;48695;53.480;-6.300;2023-09-18T02:06:51;99397.22;;;17.24;81.23
61537;BME280;48695;53.480;-6.300;2023-09-18T02:09:17;99395.50;;;17.23;80.84
61537;BME280;48695;53.480;-6.300;2023-09-18T02:11:46;99392.88;;;17.23;81.05
61537;BME280;48695;53.480;-6.300;2023-09-18T02:14:12;99389.50;;;17.21;80.77
61537;BME280;48695;53.480;-6.300;2023-09-18T02:16:39;99386.03;;;17.21;80.93
61537;BME280;48695;53.480;-6.300;2023-09-18T02:19:13;99386.88;;;17.21;80.77
61537;BME280;48695;53.480;-6.300;2023-09-18T02:21:39;99383.50;;;17.19;80.83
61537;BME280;48695;53.480;-6.300;2023-09-18T02:24:06;99376.53;;;17.18;81.04
61537;BME280;48695;53.480;-6.300;2023-09-18T02:26:31;99376.53;;;17.18;80.80
61537;BME280;48695;53.480;-6.300;2023-09-18T02:28:59;99367.69;;;17.19;81.14
61537;BME280;48695;53.480;-6.300;2023-09-18T02:31:25;99359.00;;;17.17;81.01
61537;BME280;48695;53.480;-6.300;2023-09-18T02:33:50;99359.97;;;17.16;81.04
61537;BME280;48695;53.480;-6.300;2023-09-18T02:36:16;99345.09;;;17.15;81.24
61537;BME280;48695;53.480;-6.300;2023-09-18T02:38:42;99347.75;;;17.15;81.13
61537;BME280;48695;53.480;-6.300;2023-09-18T02:41:08;99355.66;;;17.15;81.16
61537;BME280;48695;53.480;-6.300;2023-09-18T02:43:33;99343.44;;;17.14;80.96
61537;BME280;48695;53.480;-6.300;2023-09-18T02:45:58;99349.53;;;17.15;80.96
61537;BME280;48695;53.480;-6.300;2023-09-18T02:48:24;99349.53;;;17.15;80.84
61537;BME280;48695;53.480;-6.300;2023-09-18T02:50:49;99356.63;;;17.14;81.23
61537;BME280;48695;53.480;-6.300;2023-09-18T02:53:22;99333.53;;;17.05;81.02
61537;BME280;48695;53.480;-6.300;2023-09-18T02:55:51;99347.75;;;17.15;81.09
61537;BME280;48695;53.480;-6.300;2023-09-18T02:58:16;99345.31;;;17.12;81.03
61537;BME280;48695;53.480;-6.300;2023-09-18T03:00:43;99346.16;;;17.12;80.57
61537;BME280;48695;53.480;-6.300;2023-09-18T03:03:09;99347.88;;;17.14;80.60
61537;BME280;48695;53.480;-6.300;2023-09-18T03:05:35;99347.00;;;17.13;80.61
61537;BME280;48695;53.480;-6.300;2023-09-18T03:08:01;99276.38;;;16.67;80.92
61537;BME280;48695;53.480;-6.300;2023-09-18T03:10:26;99347.94;;;17.12;81.04
61537;BME280;48695;53.480;-6.300;2023-09-18T03:12:52;99333.66;;;17.03;80.89
61537;BME280;48695;53.480;-6.300;2023-09-18T03:15:17;99342.91;;;17.09;80.84
61537;BME280;48695;53.480;-6.300;2023-09-18T03:17:42;99343.63;;;17.11;80.74
61537;BME280;48695;53.480;-6.300;2023-09-18T03:20:08;99338.56;;;17.08;81.03
61537;BME280;48695;53.480;-6.300;2023-09-18T03:22:34;99328.00;;;17.08;80.90
61537;BME280;48695;53.480;-6.300;2023-09-18T03:25:00;99341.19;;;17.08;80.77
61537;BME280;48695;53.480;-6.300;2023-09-18T03:27:25;99345.56;;;17.09;80.72
61537;BME280;48695;53.480;-6.300;2023-09-18T03:29:54;99338.56;;;17.08;80.68
61537;BME280;48695;53.480;-6.300;2023-09-18T03:32:20;99331.84;;;17.04;80.42
61537;BME280;48695;53.480;-6.300;2023-09-18T03:34:45;99336.03;;;17.06;80.49
61537;BME280;48695;53.480;-6.300;2023-09-18T03:37:11;99336.16;;;17.05;80.72
61537;BME280;48695;53.480;-6.300;2023-09-18T03:39:36;99352.09;;;17.03;80.80
61537;BME280;48695;53.480;-6.300;2023-09-18T03:42:01;99344.28;;;17.02;80.56
61537;BME280;48695;53.480;-6.300;2023-09-18T03:44:27;99321.53;;;16.88;80.80
61537;BME280;48695;53.480;-6.300;2023-09-18T03:46:53;99342.81;;;16.98;80.29
61537;BME280;48695;53.480;-6.300;2023-09-18T03:49:18;99350.84;;;16.96;80.62
61537;BME280;48695;53.480;-6.300;2023-09-18T03:51:43;99329.34;;;16.90;80.21
61537;BME280;48695;53.480;-6.300;2023-09-18T03:54:09;99327.88;;;16.85;80.68
61537;BME280;48695;53.480;-6.300;2023-09-18T03:56:35;99323.03;;;16.79;80.32
61537;BME280;48695;53.480;-6.300;2023-09-18T03:59:00;99328.81;;;16.84;80.50
61537;BME280;48695;53.480;-6.300;2023-09-18T04:01:27;99327.66;;;16.76;80.77
61537;BME280;48695;53.480;-6.300;2023-09-18T04:03:52;99340.41;;;16.82;80.67
61537;BME280;48695;53.480;-6.300;2023-09-18T04:06:20;99330.19;;;16.77;80.73
61537;BME280;48695;53.480;-6.300;2023-09-18T04:08:46;99338.00;;;16.79;80.89
61537;BME280;48695;53.480;-6.300;2023-09-18T04:11:11;99338.22;;;16.76;80.58
61537;BME280;48695;53.480;-6.300;2023-09-18T04:13:36;99328.75;;;16.73;80.96
61537;BME280;48695;53.480;-6.300;2023-09-18T04:16:03;99338.44;;;16.73;80.61
61537;BME280;48695;53.480;-6.300;2023-09-18T04:18:29;99319.22;;;16.58;80.72
61537;BME280;48695;53.480;-6.300;2023-09-18T04:20:54;99334.38;;;16.67;80.26
61537;BME280;48695;53.480;-6.300;2023-09-18T04:23:23;99338.22;;;16.63;80.24
61537;BME280;48695;53.480;-6.300;2023-09-18T04:25:50;99333.13;;;16.60;79.90
61537;BME280;48695;53.480;-6.300;2023-09-18T04:28:20;99335.03;;;16.58;79.69
61537;BME280;48695;53.480;-6.300;2023-09-18T04:30:46;99325.84;;;16.51;80.00
61537;BME280;48695;53.480;-6.300;2023-09-18T04:33:15;99326.28;;;16.45;79.38
61537;BME280;48695;53.480;-6.300;2023-09-18T04:35:41;99329.22;;;16.40;79.78
61537;BME280;48695;53.480;-6.300;2023-09-18T04:38:07;99327.03;;;16.34;80.14
61537;BME280;48695;53.480;-6.300;2023-09-18T04:40:36;99331.78;;;16.29;79.73
61537;BME280;48695;53.480;-6.300;2023-09-18T04:43:02;99304.69;;;16.14;79.57
61537;BME280;48695;53.480;-6.300;2023-09-18T04:45:30;99330.81;;;16.17;79.49
61537;BME280;48695;53.480;-6.300;2023-09-18T04:47:55;99322.38;;;16.12;79.62
61537;BME280;48695;53.480;-6.300;2023-09-18T04:50:22;99319.22;;;16.07;79.90
61537;BME280;48695;53.480;-6.300;2023-09-18T04:52:47;99325.72;;;16.01;79.22
61537;BME280;48695;53.480;-6.300;2023-09-18T04:55:14;99317.28;;;15.96;79.67
61537;BME280;48695;53.480;-6.300;2023-09-18T04:57:39;99314.97;;;15.92;78.96
61537;BME280;48695;53.480;-6.300;2023-09-18T05:00:05;99313.69;;;15.85;79.40
61537;BME280;48695;53.480;-6.300;2023-09-18T05:02:37;99318.28;;;15.81;80.01
61537;BME280;48695;53.480;-6.300;2023-09-18T05:05:03;99316.84;;;15.77;79.79
61537;BME280;48695;53.480;-6.300;2023-09-18T05:07:29;99319.78;;;15.72;80.29
61537;BME280;48695;53.480;-6.300;2023-09-18T05:09:54;99318.28;;;15.68;80.09
61537;BME280;48695;53.480;-6.300;2023-09-18T05:12:20;99314.16;;;15.64;79.05
61537;BME280;48695;53.480;-6.300;2023-09-18T05:14:45;99317.91;;;15.60;78.92
61537;BME280;48695;53.480;-6.300;2023-09-18T05:17:15;99318.13;;;15.57;79.32
61537;BME280;48695;53.480;-6.300;2023-09-18T05:19:40;99321.13;;;15.51;79.82
61537;BME280;48695;53.480;-6.300;2023-09-18T05:22:07;99322.28;;;15.47;79.65
61537;BME280;48695;53.480;-6.300;2023-09-18T05:24:33;99315.41;;;15.44;79.41
61537;BME280;48695;53.480;-6.300;2023-09-18T05:26:58;99317.41;;;15.41;79.33
61537;BME280;48695;53.480;-6.300;2023-09-18T05:29:24;99299.97;;;15.25;79.58
61537;BME280;48695;53.480;-6.300;2023-09-18T05:31:49;99318.75;;;15.34;79.49
61537;BME280;48695;53.480;-6.300;2023-09-18T05:34:15;99318.00;;;15.31;79.72
61537;BME280;48695;53.480;-6.300;2023-09-18T05:36:40;99302.06;;;15.20;79.15
61537;BME280;48695;53.480;-6.300;2023-09-18T05:39:06;99321.56;;;15.30;78.96
61537;BME280;48695;53.480;-6.300;2023-09-18T05:41:37;99324.41;;;15.27;79.46
61537;BME280;48695;53.480;-6.300;2023-09-18T05:44:02;99320.16;;;15.25;79.11
61537;BME280;48695;53.480;-6.300;2023-09-18T05:46:30;99319.44;;;15.23;79.42
61537;BME280;48695;53.480;-6.300;2023-09-18T05:48:56;99306.22;;;15.10;79.30
61537;BME280;48695;53.480;-6.300;2023-09-18T05:51:22;99313.81;;;15.15;79.40
61537;BME280;48695;53.480;-6.300;2023-09-18T05:53:48;99320.69;;;15.17;78.90
61537;BME280;48695;53.480;-6.300;2023-09-18T05:56:13;99322.66;;;15.14;79.28
61537;BME280;48695;53.480;-6.300;2023-09-18T05:58:39;99323.69;;;15.11;79.43
61537;BME280;48695;53.480;-6.300;2023-09-18T06:01:06;99326.41;;;15.10;79.62
61537;BME280;48695;53.480;-6.300;2023-09-18T06:03:32;99324.06;;;15.05;80.00
61537;BME280;48695;53.480;-6.300;2023-09-18T06:06:04;99318.19;;;15.01;80.27
61537;BME280;48695;53.480;-6.300;2023-09-18T06:08:29;99327.84;;;15.01;79.70
61537;BME280;48695;53.480;-6.300;2023-09-18T06:10:58;99336.66;;;15.00;79.52
61537;BME280;48695;53.480;-6.300;2023-09-18T06:13:24;99327.09;;;14.99;79.56
61537;BME280;48695;53.480;-6.300;2023-09-18T06:15:51;99324.47;;;14.99;79.48
61537;BME280;48695;53.480;-6.300;2023-09-18T06:18:18;99328.03;;;14.98;79.68
61537;BME280;48695;53.480;-6.300;2023-09-18T06:20:46;99334.97;;;14.99;79.54
61537;BME280;48695;53.480;-6.300;2023-09-18T06:23:11;99333.28;;;14.98;79.40
61537;BME280;48695;53.480;-6.300;2023-09-18T06:25:38;99332.63;;;14.94;79.52
61537;BME280;48695;53.480;-6.300;2023-09-18T06:28:03;99338.56;;;14.98;79.64
61537;BME280;48695;53.480;-6.300;2023-09-18T06:30:29;99345.50;;;14.99;79.58
61537;BME280;48695;53.480;-6.300;2023-09-18T06:32:56;99353.47;;;14.97;79.42
61537;BME280;48695;53.480;-6.300;2023-09-18T06:35:21;99338.09;;;14.91;79.72
61537;BME280;48695;53.480;-6.300;2023-09-18T06:37:47;99360.31;;;15.00;79.33
61537;BME280;48695;53.480;-6.300;2023-09-18T06:40:13;99346.94;;;14.90;79.39
61537;BME280;48695;53.480;-6.300;2023-09-18T06:42:38;99355.94;;;15.00;79.42
61537;BME280;48695;53.480;-6.300;2023-09-18T06:45:05;99359.41;;;15.01;79.46
61537;BME280;48695;53.480;-6.300;2023-09-18T06:47:32;99363.72;;;15.02;79.17
61537;BME280;48695;53.480;-6.300;2023-09-18T06:49:58;99366.34;;;15.02;79.27
61537;BME280;48695;53.480;-6.300;2023-09-18T06:52:25;99354.31;;;14.98;78.88
61537;BME280;48695;53.480;-6.300;2023-09-18T06:54:52;99365.50;;;15.01;79.25
61537;BME280;48695;53.480;-6.300;2023-09-18T06:57:17;99363.50;;;15.05;79.11
61537;BME280;48695;53.480;-6.300;2023-09-18T06:59:43;99368.88;;;15.03;79.01
61537;BME280;48695;53.480;-6.300;2023-09-18T07:02:09;99379.28;;;15.05;79.37
61537;BME280;48695;53.480;-6.300;2023-09-18T07:04:35;99381.91;;;15.05;79.05
61537;BME280;48695;53.480;-6.300;2023-09-18T07:07:00;99385.41;;;15.05;78.86
61537;BME280;48695;53.480;-6.300;2023-09-18T07:09:25;99384.47;;;15.07;78.81
61537;BME280;48695;53.480;-6.300;2023-09-18T07:11:51;99381.00;;;15.06;79.33
61537;BME280;48695;53.480;-6.300;2023-09-18T07:14:17;99381.72;;;15.08;78.95
61537;BME280;48695;53.480;-6.300;2023-09-18T07:16:43;99383.50;;;15.08;79.02
61537;BME280;48695;53.480;-6.300;2023-09-18T07:19:08;99364.84;;;14.98;78.85
61537;BME280;48695;53.480;-6.300;2023-09-18T07:21:37;99378.16;;;15.09;79.22
61537;BME280;48695;53.480;-6.300;2023-09-18T07:24:03;99381.72;;;15.08;78.70
61537;BME280;48695;53.480;-6.300;2023-09-18T07:26:29;99378.16;;;15.09;78.73
61537;BME280;48695;53.480;-6.300;2023-09-18T07:28:54;99388.78;;;15.08;78.30
61537;BME280;48695;53.480;-6.300;2023-09-18T07:31:19;99393.19;;;15.07;78.55
61537;BME280;48695;53.480;-6.300;2023-09-18T07:33:45;99388.88;;;15.06;78.70
61537;BME280;48695;53.480;-6.300;2023-09-18T07:36:10;99382.97;;;15.02;78.08
61537;BME280;48695;53.480;-6.300;2023-09-18T07:38:36;99388.88;;;15.06;78.54
61537;BME280;48695;53.480;-6.300;2023-09-18T07:41:02;99390.16;;;15.13;78.72
61537;BME280;48695;53.480;-6.300;2023-09-18T07:43:28;99400.50;;;15.16;78.76
61537;BME280;48695;53.480;-6.300;2023-09-18T07:45:53;99394.09;;;15.20;78.57
61537;BME280;48695;53.480;-6.300;2023-09-18T07:48:21;99390.56;;;15.21;78.60
61537;BME280;48695;53.480;-6.300;2023-09-18T07:50:46;99408.69;;;15.26;78.03
61537;BME280;48695;53.480;-6.300;2023-09-18T07:53:14;99406.88;;;15.26;77.67
61537;BME280;48695;53.480;-6.300;2023-09-18T07:55:40;99415.63;;;15.27;77.51
61537;BME280;48695;53.480;-6.300;2023-09-18T07:58:06;99411.94;;;15.29;77.38
61537;BME280;48695;53.480;-6.300;2023-09-18T08:00:31;99414.38;;;15.32;77.41
61537;BME280;48695;53.480;-6.300;2023-09-18T08:02:58;99415.13;;;15.35;77.23
61537;BME280;48695;53.480;-6.300;2023-09-18T08:05:28;99386.03;;;15.23;77.39
61537;BME280;48695;53.480;-6.300;2023-09-18T08:07:55;99402.53;;;15.25;77.30
61537;BME280;48695;53.480;-6.300;2023-09-18T08:10:25;99435.97;;;15.38;76.88
61537;BME280;48695;53.480;-6.300;2023-09-18T08:12:50;99421.88;;;15.39;76.58
61537;BME280;48695;53.480;-6.300;2023-09-18T08:15:19;99417.34;;;15.41;76.77
61537;BME280;48695;53.480;-6.300;2023-09-18T08:17:45;99438.13;;;15.45;76.45
61537;BME280;48695;53.480;-6.300;2023-09-18T08:20:11;99436.88;;;15.51;76.90
61537;BME280;48695;53.480;-6.300;2023-09-18T08:22:38;99435.47;;;15.60;76.34
61537;BME280;48695;53.480;-6.300;2023-09-18T08:25:04;99452.50;;;15.68;76.38
61537;BME280;48695;53.480;-6.300;2023-09-18T08:27:30;99437.81;;;15.78;76.17
61537;BME280;48695;53.480;-6.300;2023-09-18T08:29:56;99445.13;;;15.88;76.11
61537;BME280;48695;53.480;-6.300;2023-09-18T08:32:21;99452.44;;;15.97;76.02
61537;BME280;48695;53.480;-6.300;2023-09-18T08:34:47;99455.94;;;16.10;75.32
61537;BME280;48695;53.480;-6.300;2023-09-18T08:37:12;99457.03;;;16.20;75.43
61537;BME280;48695;53.480;-6.300;2023-09-18T08:39:38;99462.53;;;16.30;74.60
61537;BME280;48695;53.480;-6.300;2023-09-18T08:42:05;99461.50;;;16.45;74.36
61537;BME280;48695;53.480;-6.300;2023-09-18T08:44:32;99473.78;;;16.59;74.25
61537;BME280;48695;53.480;-6.300;2023-09-18T08:46:58;99457.16;;;16.71;73.70
61537;BME280;48695;53.480;-6.300;2023-09-18T08:49:24;99459.69;;;16.85;73.02
61537;BME280;48695;53.480;-6.300;2023-09-18T08:51:54;99454.22;;;17.01;74.61
61537;BME280;48695;53.480;-6.300;2023-09-18T08:54:21;99454.22;;;17.14;72.56
61537;BME280;48695;53.480;-6.300;2023-09-18T08:56:47;99452.06;;;17.32;72.87
61537;BME280;48695;53.480;-6.300;2023-09-18T08:59:12;99434.22;;;17.35;72.13
61537;BME280;48695;53.480;-6.300;2023-09-18T09:01:39;99461.09;;;17.66;71.77
61537;BME280;48695;53.480;-6.300;2023-09-18T09:04:04;99442.69;;;17.77;71.00
61537;BME280;48695;53.480;-6.300;2023-09-18T09:06:30;99451.47;;;18.02;71.71
61537;BME280;48695;53.480;-6.300;2023-09-18T09:08:55;99463.75;;;18.14;69.81
61537;BME280;48695;53.480;-6.300;2023-09-18T09:11:21;99458.09;;;18.31;69.55
61537;BME280;48695;53.480;-6.300;2023-09-18T09:13:46;99444.69;;;18.46;68.82
61537;BME280;48695;53.480;-6.300;2023-09-18T09:16:12;99443.75;;;18.58;68.92
61537;BME280;48695;53.480;-6.300;2023-09-18T09:18:50;99446.47;;;18.80;70.00
61537;BME280;48695;53.480;-6.300;2023-09-18T09:21:16;99422.66;;;18.80;68.06
61537;BME280;48695;53.480;-6.300;2023-09-18T09:23:50;99431.72;;;19.11;68.29
61537;BME280;48695;53.480;-6.300;2023-09-18T09:26:20;99433.03;;;19.28;67.62
61537;BME280;48695;53.480;-6.300;2023-09-18T09:28:46;99433.16;;;19.60;72.58
61537;BME280;48695;53.480;-6.300;2023-09-18T09:31:29;99434.69;;;19.74;68.84
61537;BME280;48695;53.480;-6.300;2023-09-18T09:33:55;99423.94;;;19.87;65.28
61537;BME280;48695;53.480;-6.300;2023-09-18T09:36:22;99410.06;;;19.94;64.12
61537;BME280;48695;53.480;-6.300;2023-09-18T09:38:48;99428.78;;;20.14;64.32
61537;BME280;48695;53.480;-6.300;2023-09-18T09:41:14;99441.22;;;20.34;63.51
61537;BME280;48695;53.480;-6.300;2023-09-18T09:43:42;99441.53;;;20.52;63.10
61537;BME280;48695;53.480;-6.300;2023-09-18T09:46:15;99450.44;;;20.72;64.15
61537;BME280;48695;53.480;-6.300;2023-09-18T09:48:58;99429.72;;;20.87;65.63
61537;BME280;48695;53.480;-6.300;2023-09-18T09:51:24;99436.72;;;20.88;61.11
61537;BME280;48695;53.480;-6.300;2023-09-18T09:53:49;99441.00;;;21.00;61.24
61537;BME280;48695;53.480;-6.300;2023-09-18T09:56:16;99433.38;;;21.16;59.56
61537;BME280;48695;53.480;-6.300;2023-09-18T09:59:03;99426.66;;;21.43;63.91
61537;BME280;48695;53.480;-6.300;2023-09-18T10:01:35;99443.75;;;21.50;57.79
61537;BME280;48695;53.480;-6.300;2023-09-18T10:04:05;99421.38;;;21.62;60.79
61537;BME280;48695;53.480;-6.300;2023-09-18T10:06:35;99441.03;;;21.81;57.65
61537;BME280;48695;53.480;-6.300;2023-09-18T10:09:06;99441.59;;;22.03;58.81
61537;BME280;48695;53.480;-6.300;2023-09-18T10:11:34;99447.78;;;22.14;56.17
61537;BME280;48695;53.480;-6.300;2023-09-18T10:14:08;99438.84;;;22.34;59.48
61537;BME280;48695;53.480;-6.300;2023-09-18T10:16:36;99444.72;;;22.47;54.82
61537;BME280;48695;53.480;-6.300;2023-09-18T10:19:09;99450.28;;;22.64;56.32
61537;BME280;48695;53.480;-6.300;2023-09-18T10:24:28;99454.44;;;22.95;56.72
61537;BME280;48695;53.480;-6.300;2023-09-18T10:26:56;99454.75;;;22.92;52.10
61537;BME280;48695;53.480;-6.300;2023-09-18T10:29:23;99464.25;;;23.04;59.61
61537;BME280;48695;53.480;-6.300;2023-09-18T10:31:53;99458.09;;;22.85;52.95
61537;BME280;48695;53.480;-6.300;2023-09-18T10:34:19;99463.84;;;22.80;52.23
61537;BME280;48695;53.480;-6.300;2023-09-18T10:36:48;99433.28;;;22.84;52.26
61537;BME280;48695;53.480;-6.300;2023-09-18T10:39:14;99458.53;;;22.90;53.04
61537;BME280;48695;53.480;-6.300;2023-09-18T10:41:48;99463.16;;;22.97;51.30
61537;BME280;48695;53.480;-6.300;2023-09-18T10:44:14;99459.31;;;23.10;51.34
61537;BME280;48695;53.480;-6.300;2023-09-18T10:46:41;99456.88;;;23.26;51.51
61537;BME280;48695;53.480;-6.300;2023-09-18T10:49:06;99442.06;;;23.41;51.58
61537;BME280;48695;53.480;-6.300;2023-09-18T10:51:32;99454.47;;;23.60;51.10
61537;BME280;48695;53.480;-6.300;2023-09-18T10:53:59;99433.13;;;23.70;48.65
61537;BME280;48695;53.480;-6.300;2023-09-18T10:56:25;99440.78;;;24.00;48.69
61537;BME280;48695;53.480;-6.300;2023-09-18T10:58:59;99451.53;;;24.26;51.95
61537;BME280;48695;53.480;-6.300;2023-09-18T11:01:24;99453.44;;;24.34;49.19
61537;BME280;48695;53.480;-6.300;2023-09-18T11:03:52;99448.28;;;24.50;46.11
61537;BME280;48695;53.480;-6.300;2023-09-18T11:06:18;99452.06;;;24.66;48.23
61537;BME280;48695;53.480;-6.300;2023-09-18T11:08:48;99441.19;;;24.85;46.08
61537;BME280;48695;53.480;-6.300;2023-09-18T11:11:17;99453.56;;;25.12;46.32
61537;BME280;48695;53.480;-6.300;2023-09-18T11:13:48;99434.44;;;25.33;45.23
61537;BME280;48695;53.480;-6.300;2023-09-18T11:16:19;99436.88;;;25.52;45.38
61537;BME280;48695;53.480;-6.300;2023-09-18T11:21:25;99440.00;;;25.90;44.30
61537;BME280;48695;53.480;-6.300;2023-09-18T11:24:04;99428.03;;;26.10;46.79
61537;BME280;48695;53.480;-6.300;2023-09-18T11:26:50;99449.16;;;26.46;46.94
61537;BME280;48695;53.480;-6.300;2023-09-18T11:29:21;99449.16;;;26.54;42.94
61537;BME280;48695;53.480;-6.300;2023-09-18T11:31:52;99440.63;;;26.67;41.86
61537;BME280;48695;53.480;-6.300;2023-09-18T11:34:29;99449.13;;;26.79;42.70
61537;BME280;48695;53.480;-6.300;2023-09-18T11:37:02;99443.13;;;26.77;38.59
61537;BME280;48695;53.480;-6.300;2023-09-18T11:39:44;99445.78;;;26.77;39.19
61537;BME280;48695;53.480;-6.300;2023-09-18T11:42:17;99440.06;;;26.80;40.63
61537;BME280;48695;53.480;-6.300;2023-09-18T11:44:43;99439.09;;;26.73;38.66
61537;BME280;48695;53.480;-6.300;2023-09-18T11:47:24;99451.94;;;27.02;41.52
61537;BME280;48695;53.480;-6.300;2023-09-18T11:49:57;99442.41;;;26.91;36.11
61537;BME280;48695;53.480;-6.300;2023-09-18T11:52:25;99443.78;;;26.79;36.73
61537;BME280;48695;53.480;-6.300;2023-09-18T11:54:52;99443.28;;;26.59;38.06
61537;BME280;48695;53.480;-6.300;2023-09-18T11:57:18;99449.94;;;26.38;37.44
61537;BME280;48695;53.480;-6.300;2023-09-18T11:59:49;99449.44;;;26.10;38.07
61537;BME280;48695;53.480;-6.300;2023-09-18T12:02:28;99452.91;;;25.86;41.41
61537;BME280;48695;53.480;-6.300;2023-09-18T12:05:05;99449.59;;;25.58;41.12
61537;BME280;48695;53.480;-6.300;2023-09-18T12:07:31;99428.09;;;25.26;41.21
61537;BME280;48695;53.480;-6.300;2023-09-18T12:09:57;99459.81;;;25.29;42.00
61537;BME280;48695;53.480;-6.300;2023-09-18T12:12:22;99448.28;;;25.28;40.35
61537;BME280;48695;53.480;-6.300;2023-09-18T12:14:48;99459.50;;;25.32;39.19
61537;BME280;48695;53.480;-6.300;2023-09-18T12:17:16;99433.81;;;25.39;40.11
61537;BME280;48695;53.480;-6.300;2023-09-18T12:19:54;99434.84;;;25.46;42.33
61537;BME280;48695;53.480;-6.300;2023-09-18T12:22:27;99431.69;;;25.51;40.56
61537;BME280;48695;53.480;-6.300;2023-09-18T12:24:53;99436.72;;;25.54;38.87
61537;BME280;48695;53.480;-6.300;2023-09-18T12:27:19;99434.25;;;25.60;38.95
61537;BME280;48695;53.480;-6.300;2023-09-18T12:29:44;99431.22;;;25.63;39.22
61537;BME280;48695;53.480;-6.300;2023-09-18T12:32:10;99428.28;;;25.75;38.19
61537;BME280;48695;53.480;-6.300;2023-09-18T12:34:40;99425.59;;;25.75;39.26
61537;BME280;48695;53.480;-6.300;2023-09-18T12:37:08;99416.28;;;25.87;38.89
61537;BME280;48695;53.480;-6.300;2023-09-18T12:39:34;99424.13;;;25.80;38.65
61537;BME280;48695;53.480;-6.300;2023-09-18T12:42:00;99427.97;;;25.78;37.93
61537;BME280;48695;53.480;-6.300;2023-09-18T12:44:25;99421.88;;;25.68;38.54
61537;BME280;48695;53.480;-6.300;2023-09-18T12:46:51;99423.19;;;25.55;38.53
61537;BME280;48695;53.480;-6.300;2023-09-18T12:51:42;99420.78;;;25.36;39.06
61537;BME280;48695;53.480;-6.300;2023-09-18T12:54:09;99436.81;;;25.36;39.98
61537;BME280;48695;53.480;-6.300;2023-09-18T12:56:42;99431.50;;;25.44;41.80
61537;BME280;48695;53.480;-6.300;2023-09-18T12:59:09;99432.19;;;25.54;40.34